Snow, Oklahoma
Current Conditions -  °F | °C
As of 3:15 PM on Saturday 22 Nov 2014 (Local Time) from KHHW Reporting Station
Overcast Overcast  
Wind Chill: 61°   Ceiling: 10000
Heat Index: 61°   Visibility: 10mi
Dew Point: 55°   Wind: 8mph
Humidity: 80%   Direction: 70°ENE
Pressure: 29.91"   Gusts: NA
Location:  34.4°N, 95.42°W
Report Text: KHHW 222115Z AUTO 07007KT 10SM SCT031 SCT045 OVC100 16/13 A2991 RMK AO2 LTG DSNT S AND SW T01620128
Loading
Personal Weather Stations






























Interactive Weather Map New forecast layout! Learn more

10-Day Weather Forecast

Advertisements
Track Severe Weather on mobile